Time;durP1;ratioP1;P1;durP2;ratioP2;P2;SDS_P1;SDS_P2;PMS_P1;PMS_P2;Temp;Humidity;BMP_temperature;BMP_pressure;BME280_temperature;BME280_humidity;BME280_pressure;Samples;Min_cycle;Max_cycle;Signal;HPM_P1;HPM_P2
2022/09/23 00:00:14;;;;;;;9.30;5.65;;;10.10;99.90;;;;;;4954607;28;20054;-93
2022/09/23 00:02:41;;;;;;;10.32;5.63;;;10.00;99.90;;;;;;4954563;28;20035;-94
2022/09/23 00:05:09;;;;;;;8.65;5.45;;;10.00;99.90;;;;;;4956717;29;20043;-93
2022/09/23 00:07:35;;;;;;;8.88;5.28;;;9.90;99.90;;;;;;4955575;29;20046;-94
2022/09/23 00:10:00;;;;;;;8.13;5.97;;;9.90;99.90;;;;;;4953636;28;20114;-94
2022/09/23 00:12:26;;;;;;;9.60;5.65;;;9.80;99.90;;;;;;4956294;28;20523;-94
2022/09/23 00:14:51;;;;;;;7.82;5.22;;;9.90;99.90;;;;;;4951303;29;20040;-93
2022/09/23 00:17:17;;;;;;;12.38;5.72;;;9.80;99.90;;;;;;4955145;28;20046;-94
2022/09/23 00:19:43;;;;;;;11.48;5.60;;;9.80;99.90;;;;;;4944674;29;20053;-95
2022/09/23 00:22:08;;;;;;;9.43;5.68;;;9.80;99.90;;;;;;4958163;28;20043;-93
2022/09/23 00:24:34;;;;;;;8.57;5.35;;;9.80;99.90;;;;;;4938647;29;20071;-93
2022/09/23 00:27:00;;;;;;;10.02;5.75;;;9.90;99.90;;;;;;4959956;29;20043;-94
2022/09/23 00:29:25;;;;;;;9.55;5.10;;;9.80;99.90;;;;;;4958107;28;20039;-92
2022/09/23 00:31:51;;;;;;;9.90;5.30;;;9.80;99.90;;;;;;4953747;29;20103;-93
2022/09/23 00:34:17;;;;;;;7.53;5.65;;;9.90;99.90;;;;;;4954348;28;20055;-94
2022/09/23 00:36:43;;;;;;;9.05;5.82;;;9.80;99.90;;;;;;4961010;28;20055;-93
2022/09/23 00:39:08;;;;;;;10.32;4.85;;;9.80;99.90;;;;;;4955262;29;20035;-93
2022/09/23 00:41:35;;;;;;;10.77;5.40;;;9.80;99.90;;;;;;4958325;29;20035;-94
2022/09/23 00:44:22;;;;;;;10.98;5.55;;;9.90;99.90;;;;;;4953379;28;20416;-92
2022/09/23 00:46:48;;;;;;;9.25;5.00;;;9.80;99.90;;;;;;4962051;28;20043;-94
2022/09/23 00:49:28;;;;;;;10.15;5.53;;;9.80;99.90;;;;;;4952204;29;20032;-92
2022/09/23 00:52:01;;;;;;;7.60;5.07;;;9.70;99.90;;;;;;4960304;28;20091;-93
2022/09/23 00:54:28;;;;;;;7.05;5.03;;;9.70;99.90;;;;;;4958004;28;20051;-93
2022/09/23 00:56:55;;;;;;;8.15;4.97;;;9.80;99.90;;;;;;4953823;29;20491;-92
2022/09/23 00:59:23;;;;;;;6.85;4.95;;;9.70;99.90;;;;;;4959226;29;20039;-93
2022/09/23 01:01:53;;;;;;;11.10;4.80;;;9.60;99.90;;;;;;4956030;29;20118;-94
2022/09/23 01:04:24;;;;;;;7.55;5.45;;;9.60;99.90;;;;;;4954682;28;20043;-94
2022/09/23 01:06:49;;;;;;;8.52;5.22;;;9.60;99.90;;;;;;4949376;29;20122;-95
2022/09/23 01:09:16;;;;;;;7.97;5.32;;;9.60;99.90;;;;;;4933846;29;20067;-93
2022/09/23 01:11:53;;;;;;;12.38;5.38;;;9.60;99.90;;;;;;4957778;28;20051;-94
2022/09/23 01:15:06;;;;;;;7.03;4.88;;;9.60;99.90;;;;;;4956710;29;20070;-93
2022/09/23 01:17:50;;;;;;;8.38;5.20;;;9.60;99.90;;;;;;4916605;29;20048;-92
2022/09/23 01:20:55;;;;;;;8.15;5.65;;;9.60;99.90;;;;;;4902514;29;20199;-95
2022/09/23 01:23:40;;;;;;;14.43;5.80;;;9.60;99.90;;;;;;4909048;29;20155;-93
2022/09/23 01:26:19;;;;;;;7.82;5.53;;;9.50;99.90;;;;;;4907480;29;20113;-94
2022/09/23 01:29:01;;;;;;;9.98;5.85;;;9.50;99.90;;;;;;4908074;29;21438;-93
2022/09/23 01:31:45;;;;;;;8.63;5.93;;;9.50;99.90;;;;;;4908695;29;20040;-94
2022/09/23 01:34:23;;;;;;;8.65;6.35;;;9.50;99.90;;;;;;4908756;29;20509;-94
2022/09/23 01:37:13;;;;;;;7.95;6.32;;;9.50;99.90;;;;;;4908369;29;20055;-93
2022/09/23 01:39:49;;;;;;;11.38;6.43;;;9.50;99.90;;;;;;4907393;29;20216;-95
2022/09/23 01:42:33;;;;;;;7.65;6.15;;;9.50;99.90;;;;;;4908391;29;20052;-94
2022/09/23 01:45:11;;;;;;;7.72;6.20;;;9.50;99.90;;;;;;4907935;29;20131;-93
2022/09/23 01:47:43;;;;;;;10.55;6.50;;;9.50;99.90;;;;;;4919140;28;20057;-93
2022/09/23 01:53:23;;;;;;;8.93;6.00;;;9.40;99.90;;;;;;4929947;28;20547;-93
2022/09/23 01:55:55;;;;;;;13.32;6.55;;;9.40;99.90;;;;;;4933786;29;20043;-93
2022/09/23 01:58:41;;;;;;;7.85;6.63;;;9.40;99.90;;;;;;4957840;29;20042;-93
2022/09/23 02:01:13;;;;;;;7.95;6.05;;;9.40;99.90;;;;;;4948670;29;20051;-94
2022/09/23 02:03:48;;;;;;;10.85;6.55;;;9.40;99.90;;;;;;4940665;29;20047;-92
2022/09/23 02:06:22;;;;;;;9.80;6.22;;;9.40;99.90;;;;;;4933986;29;20552;-95
2022/09/23 02:09:14;;;;;;;10.23;6.57;;;9.50;99.90;;;;;;4952329;29;20035;-94
2022/09/23 02:11:46;;;;;;;9.40;6.03;;;9.50;99.90;;;;;;4958369;28;20050;-93
2022/09/23 02:14:24;;;;;;;11.40;6.25;;;9.50;99.90;;;;;;4954400;28;20038;-95
2022/09/23 02:16:57;;;;;;;8.40;6.43;;;9.50;99.90;;;;;;4952613;29;20051;-94
2022/09/23 02:19:42;;;;;;;9.73;5.40;;;9.50;99.90;;;;;;4947825;28;20072;-94
2022/09/23 02:22:10;;;;;;;;;;;9.40;99.90;;;;;;4949283;28;20282;-93
2022/09/23 02:24:38;;;;;;;8.40;5.50;;;9.40;99.90;;;;;;4947205;28;19930;-93
2022/09/23 02:27:06;;;;;;;7.38;5.80;;;9.40;99.90;;;;;;4948772;28;20530;-92
2022/09/23 02:29:47;;;;;;;7.97;5.63;;;9.50;99.90;;;;;;4951820;29;20047;-93
2022/09/23 02:32:19;;;;;;;9.10;5.60;;;9.40;99.90;;;;;;4952824;28;20043;-92
2022/09/23 02:34:48;;;;;;;10.75;5.82;;;9.50;99.90;;;;;;4949252;28;20603;-94
2022/09/23 02:37:24;;;;;;;7.80;5.13;;;9.40;99.90;;;;;;4929342;28;20103;-93
2022/09/23 02:40:04;;;;;;;7.50;5.80;;;9.40;99.90;;;;;;4947811;29;20043;-92
2022/09/23 02:42:48;;;;;;;7.55;5.18;;;9.30;99.90;;;;;;4930949;29;20051;-95
2022/09/23 02:45:14;;;;;;;6.97;5.57;;;9.30;99.90;;;;;;4952283;28;20583;-93
2022/09/23 02:47:42;;;;;;;8.80;5.30;;;9.30;99.90;;;;;;4939852;29;20078;-92
2022/09/23 02:50:08;;;;;;;7.57;4.63;;;9.30;99.90;;;;;;4937071;29;20077;-94
2022/09/23 02:52:37;;;;;;;10.02;5.28;;;9.20;99.90;;;;;;4957965;29;20086;-94
2022/09/23 02:55:05;;;;;;;8.45;5.00;;;9.20;99.90;;;;;;4939278;29;20062;-92
2022/09/23 02:57:31;;;;;;;6.78;4.90;;;9.20;99.90;;;;;;4957342;28;20046;-93
2022/09/23 02:59:57;;;;;;;8.00;5.85;;;9.10;99.90;;;;;;4948673;29;20408;-93
2022/09/23 03:02:40;;;;;;;8.70;5.93;;;9.30;99.90;;;;;;4947399;28;20039;-93
2022/09/23 03:05:23;;;;;;;11.15;6.05;;;9.10;99.90;;;;;;4928505;29;20050;-93
2022/09/23 03:08:11;;;;;;;12.52;6.55;;;9.00;99.90;;;;;;4947311;29;20039;-93
2022/09/23 03:11:03;;;;;;;8.30;6.78;;;9.00;99.90;;;;;;4954522;29;20039;-94
2022/09/23 03:13:47;;;;;;;10.30;7.18;;;9.00;99.90;;;;;;4952873;29;20043;-93
2022/09/23 03:16:24;;;;;;;10.73;6.72;;;8.90;99.90;;;;;;4940385;29;20043;-93
2022/09/23 03:19:00;;;;;;;9.68;6.18;;;8.90;99.90;;;;;;4957284;28;20132;-92
2022/09/23 03:21:31;;;;;;;9.63;5.90;;;8.90;99.90;;;;;;4956729;28;20062;-92
2022/09/23 03:24:01;;;;;;;9.65;6.82;;;8.80;99.90;;;;;;4953965;28;20047;-93
2022/09/23 03:26:30;;;;;;;9.57;7.20;;;8.80;99.90;;;;;;4947083;29;20051;-93
2022/09/23 03:28:57;;;;;;;11.63;7.18;;;8.80;99.90;;;;;;4951004;28;20106;-95
2022/09/23 03:31:23;;;;;;;11.73;6.60;;;8.70;99.90;;;;;;4936174;29;20039;-94
2022/09/23 03:33:54;;;;;;;10.60;7.63;;;8.70;99.90;;;;;;4953057;29;20432;-94
2022/09/23 03:36:50;;;;;;;11.18;8.30;;;8.70;99.90;;;;;;4956508;28;20063;-92
2022/09/23 03:39:39;;;;;;;9.90;7.78;;;8.70;99.90;;;;;;4952093;29;20074;-93
2022/09/23 03:42:16;;;;;;;10.38;7.30;;;8.70;99.90;;;;;;4956907;29;20035;-93
2022/09/23 03:44:44;;;;;;;10.95;7.60;;;8.60;99.90;;;;;;4948306;29;20051;-92
2022/09/23 03:47:13;;;;;;;10.02;8.05;;;8.60;99.90;;;;;;4947534;29;20035;-92
2022/09/23 03:49:43;;;;;;;12.32;7.57;;;8.60;99.90;;;;;;4934272;29;20039;-94
2022/09/23 03:52:08;;;;;;;9.30;7.55;;;8.60;99.90;;;;;;4929559;29;20130;-93
2022/09/23 03:54:34;;;;;;;10.73;7.72;;;8.60;99.90;;;;;;4928034;29;20067;-93
2022/09/23 03:57:01;;;;;;;12.68;8.68;;;8.60;99.90;;;;;;4947658;29;20050;-93
2022/09/23 03:59:29;;;;;;;9.07;7.55;;;8.50;99.90;;;;;;4948382;29;20056;-93
2022/09/23 04:01:55;;;;;;;12.07;8.18;;;8.60;99.90;;;;;;4947396;28;20048;-91
2022/09/23 04:04:21;;;;;;;12.57;8.80;;;8.60;99.90;;;;;;4935085;29;20050;-93
2022/09/23 04:06:47;;;;;;;11.60;9.18;;;8.50;99.90;;;;;;4946437;28;20459;-92
2022/09/23 04:09:13;;;;;;;10.27;8.35;;;8.50;99.90;;;;;;4947797;29;20037;-93
2022/09/23 04:11:39;;;;;;;13.07;9.43;;;8.50;99.90;;;;;;4949040;28;20050;-93
2022/09/23 04:14:05;;;;;;;14.80;9.75;;;8.50;99.90;;;;;;4953123;29;20043;-93
2022/09/23 04:16:30;;;;;;;11.82;10.07;;;8.50;99.90;;;;;;4936423;29;21058;-92
2022/09/23 04:18:56;;;;;;;16.02;10.32;;;8.50;99.90;;;;;;4947164;28;20424;-93
2022/09/23 04:21:22;;;;;;;15.18;10.65;;;8.50;99.90;;;;;;4928817;29;20051;-91
2022/09/23 04:23:47;;;;;;;13.60;10.80;;;8.90;99.90;;;;;;4929093;29;20050;-93
2022/09/23 04:26:13;;;;;;;15.18;10.90;;;8.70;99.90;;;;;;4929504;29;20040;-93
2022/09/23 04:28:39;;;;;;;13.15;10.73;;;8.50;99.90;;;;;;4947677;28;20075;-92
2022/09/23 04:31:08;;;;;;;14.98;10.73;;;8.60;99.90;;;;;;4947446;28;20130;-93
2022/09/23 04:33:35;;;;;;;12.02;9.80;;;8.50;99.90;;;;;;4947934;28;20046;-94
2022/09/23 04:36:00;;;;;;;15.52;12.93;;;8.50;99.90;;;;;;4928017;29;20052;-92
2022/09/23 04:38:26;;;;;;;16.88;12.30;;;8.60;99.90;;;;;;4930226;28;20066;-92
2022/09/23 04:40:52;;;;;;;15.60;12.73;;;8.60;99.90;;;;;;4946685;29;20061;-92
2022/09/23 04:43:21;;;;;;;14.63;11.57;;;8.60;99.90;;;;;;4930765;28;20043;-92
2022/09/23 04:45:59;;;;;;;17.67;12.43;;;8.60;99.90;;;;;;4927549;29;20047;-93
2022/09/23 04:48:25;;;;;;;13.20;10.88;;;8.90;99.90;;;;;;4951131;29;20068;-93
2022/09/23 04:50:51;;;;;;;14.63;11.82;;;8.60;99.90;;;;;;4952096;28;20035;-92
2022/09/23 04:53:17;;;;;;;16.80;12.82;;;8.60;99.90;;;;;;4941186;29;20047;-92
2022/09/23 04:55:44;;;;;;;17.15;12.32;;;8.60;99.90;;;;;;4942671;29;20039;-92
2022/09/23 04:58:10;;;;;;;15.85;13.80;;;8.60;99.90;;;;;;4940658;29;20071;-94
2022/09/23 05:00:36;;;;;;;16.17;12.38;;;8.60;99.90;;;;;;4932810;29;20044;-92
2022/09/23 05:03:01;;;;;;;17.38;13.25;;;8.60;99.90;;;;;;4931720;29;20069;-92
2022/09/23 05:05:29;;;;;;;16.30;13.00;;;8.80;99.90;;;;;;4929682;29;20181;-95
2022/09/23 05:07:54;;;;;;;20.25;13.35;;;8.60;99.90;;;;;;4952265;28;20130;-95
2022/09/23 05:10:21;;;;;;;19.88;13.73;;;8.70;99.90;;;;;;4935792;28;20074;-92
2022/09/23 05:12:47;;;;;;;13.63;12.18;;;8.70;99.90;;;;;;4947361;29;20043;-94
2022/09/23 05:15:14;;;;;;;15.48;12.77;;;8.70;99.90;;;;;;4958507;29;20035;-92
2022/09/23 05:17:41;;;;;;;14.48;12.45;;;8.70;99.90;;;;;;4959428;28;20051;-89
2022/09/23 05:20:09;;;;;;;16.55;13.35;;;8.70;99.90;;;;;;4943574;29;20062;-93
2022/09/23 05:22:34;;;;;;;15.23;13.15;;;8.70;99.90;;;;;;4936870;29;20050;-89
2022/09/23 05:25:01;;;;;;;18.30;13.40;;;8.70;99.90;;;;;;4953222;28;20236;-91
2022/09/23 05:27:27;;;;;;;14.93;12.90;;;8.80;99.90;;;;;;4941096;29;20039;-89
2022/09/23 05:29:52;;;;;;;15.23;12.93;;;8.70;99.90;;;;;;4950097;28;20035;-91
2022/09/23 05:32:18;;;;;;;14.13;11.65;;;8.70;99.90;;;;;;4949747;29;20054;-90
2022/09/23 05:34:44;;;;;;;17.73;13.40;;;8.70;99.90;;;;;;4928917;29;20094;-88
2022/09/23 05:37:10;;;;;;;16.27;12.50;;;8.70;99.90;;;;;;4932459;29;20054;-87
2022/09/23 05:39:36;;;;;;;17.73;13.85;;;8.70;99.90;;;;;;4931117;29;20093;-93
2022/09/23 05:42:02;;;;;;;15.80;13.45;;;8.70;99.90;;;;;;4935409;29;20040;-90
2022/09/23 05:44:28;;;;;;;17.45;13.27;;;8.70;99.90;;;;;;4959594;29;20039;-91
2022/09/23 05:46:54;;;;;;;14.30;12.05;;;9.40;99.90;;;;;;4945203;29;20491;-92
2022/09/23 05:49:20;;;;;;;16.65;14.13;;;8.70;99.90;;;;;;4941489;29;20031;-94
2022/09/23 05:51:45;;;;;;;18.58;14.32;;;8.70;99.90;;;;;;4951241;29;20035;-93
2022/09/23 05:54:11;;;;;;;19.50;13.98;;;8.70;99.90;;;;;;4935273;29;20095;-93
2022/09/23 05:56:36;;;;;;;15.57;13.18;;;8.70;99.90;;;;;;4931815;29;20047;-95
2022/09/23 05:59:03;;;;;;;16.55;12.90;;;8.70;99.90;;;;;;4953704;28;20062;-93
2022/09/23 06:01:32;;;;;;;17.33;13.38;;;8.80;99.90;;;;;;4954479;29;20044;-93
2022/09/23 06:03:59;;;;;;;17.42;13.85;;;8.80;99.90;;;;;;4941444;29;20086;-93
2022/09/23 06:06:30;;;;;;;17.23;14.23;;;8.90;99.90;;;;;;4928603;29;20043;-87
2022/09/23 06:08:58;;;;;;;17.33;13.93;;;9.10;99.90;;;;;;4935873;29;20099;-93
2022/09/23 06:11:24;;;;;;;18.83;13.48;;;9.10;99.90;;;;;;4948985;28;20044;-92
2022/09/23 06:13:54;;;;;;;15.23;13.13;;;9.00;99.90;;;;;;4931053;28;20050;-95
2022/09/23 06:16:19;;;;;;;17.10;13.73;;;9.10;99.90;;;;;;4934426;29;20512;-94
2022/09/23 06:18:45;;;;;;;17.80;13.75;;;9.10;99.90;;;;;;4922909;29;20051;-89
2022/09/23 06:21:13;;;;;;;18.20;14.50;;;9.20;99.90;;;;;;4957078;29;20043;-91
2022/09/23 06:23:39;;;;;;;18.30;14.32;;;9.20;99.90;;;;;;4948086;28;20039;-94
2022/09/23 06:26:07;;;;;;;19.33;14.10;;;9.30;99.90;;;;;;4933940;29;20059;-94
2022/09/23 06:28:35;;;;;;;16.95;13.82;;;9.30;99.90;;;;;;4948677;28;20035;-93
2022/09/23 06:31:05;;;;;;;16.45;13.38;;;9.40;99.90;;;;;;4954808;28;20043;-93
2022/09/23 06:33:31;;;;;;;18.33;14.13;;;9.40;99.90;;;;;;4946073;28;20063;-94
2022/09/23 06:35:59;;;;;;;16.55;13.73;;;9.50;99.90;;;;;;4929434;29;20531;-94
2022/09/23 06:38:25;;;;;;;17.58;13.80;;;9.60;99.90;;;;;;4911367;29;20062;-96
2022/09/23 06:40:53;;;;;;;16.45;14.55;;;9.60;99.90;;;;;;4951078;28;20126;-95
2022/09/23 06:43:20;;;;;;;20.60;14.05;;;9.60;99.90;;;;;;4943914;29;20047;-95
2022/09/23 06:45:46;;;;;;;18.17;13.50;;;10.00;99.90;;;;;;4947930;29;20487;-95
2022/09/23 06:48:12;;;;;;;15.25;13.52;;;9.70;99.90;;;;;;4940808;29;20043;-91
2022/09/23 06:50:38;;;;;;;16.70;14.57;;;9.80;99.90;;;;;;4938559;29;20124;-92
2022/09/23 06:53:04;;;;;;;15.63;13.15;;;9.90;99.90;;;;;;4938932;29;20051;-93
2022/09/23 06:55:29;;;;;;;18.00;14.00;;;10.00;99.90;;;;;;4925764;29;20111;-96
2022/09/23 06:57:57;;;;;;;17.27;12.98;;;10.00;99.90;;;;;;4939971;29;20098;-96
2022/09/23 07:00:23;;;;;;;16.92;13.25;;;10.10;99.90;;;;;;4938931;29;20090;-96
2022/09/23 09:21:04;;;;;;;12.48;9.13;;;13.80;99.90;;;;;;1471638;26;20039;-90
2022/09/23 09:23:49;;;;;;;13.52;9.10;;;13.90;99.90;;;;;;4962848;28;20460;-91
2022/09/23 09:26:25;;;;;;;12.75;8.90;;;14.00;99.90;;;;;;4964434;28;20042;-93
2022/09/23 09:28:58;;;;;;;13.30;9.18;;;14.00;99.90;;;;;;4964560;28;20122;-92
2022/09/23 09:31:44;;;;;;;12.57;9.05;;;14.00;99.90;;;;;;4966128;28;20050;-93
2022/09/23 09:34:31;;;;;;;11.50;9.07;;;14.10;99.90;;;;;;4948738;28;20074;-92
2022/09/23 09:37:14;;;;;;;11.75;8.48;;;14.10;99.90;;;;;;4964213;28;20043;-93
2022/09/23 09:39:40;;;;;;;13.60;8.70;;;14.10;99.90;;;;;;4946344;28;20137;-91
2022/09/23 09:42:10;;;;;;;13.10;8.88;;;14.20;99.90;;;;;;4970282;28;20074;-92
2022/09/23 09:45:03;;;;;;;14.45;9.27;;;14.20;99.90;;;;;;4967325;28;20098;-90
2022/09/23 09:47:55;;;;;;;10.90;8.30;;;14.20;99.90;;;;;;4961654;28;20055;-92
2022/09/23 09:50:42;;;;;;;13.10;8.80;;;14.30;99.90;;;;;;4963542;28;20046;-90
2022/09/23 09:53:24;;;;;;;12.68;9.10;;;14.30;99.90;;;;;;4970549;28;20080;-90
2022/09/23 09:56:12;;;;;;;13.18;8.60;;;14.40;99.90;;;;;;4946447;28;20074;-89
2022/09/23 09:59:09;;;;;;;12.30;8.68;;;14.30;99.90;;;;;;4952394;28;20059;-89
2022/09/23 10:01:35;;;;;;;11.75;9.10;;;14.40;99.90;;;;;;4961011;28;20039;-90
2022/09/23 10:04:04;;;;;;;12.48;8.73;;;14.40;99.90;;;;;;4950149;28;20506;-91
2022/09/23 10:06:34;;;;;;;11.75;8.35;;;14.50;99.90;;;;;;4942722;28;20086;-90
2022/09/23 10:09:00;;;;;;;11.25;8.02;;;14.60;99.90;;;;;;4963324;28;20043;-90
2022/09/23 10:11:27;;;;;;;12.02;8.70;;;14.60;99.90;;;;;;4932823;28;20055;-90
2022/09/23 10:14:05;;;;;;;10.23;6.88;;;14.60;99.90;;;;;;4948686;28;20133;-90
2022/09/23 10:16:33;;;;;;;12.18;7.75;;;14.70;99.90;;;;;;4946583;28;20058;-93
2022/09/23 10:19:03;;;;;;;12.27;8.50;;;14.80;99.90;;;;;;4948195;28;20054;-91
2022/09/23 10:21:35;;;;;;;12.05;8.30;;;14.80;99.90;;;;;;4966406;28;20054;-89
2022/09/23 10:24:04;;;;;;;10.80;7.82;;;14.80;99.90;;;;;;4963894;28;20039;-93
2022/09/23 10:26:50;;;;;;;12.05;7.82;;;14.80;99.90;;;;;;4950982;28;20117;-91
2022/09/23 10:29:59;;;;;;;11.40;7.93;;;14.90;99.90;;;;;;4973304;28;20046;-89
2022/09/23 10:32:35;;;;;;;11.90;7.78;;;14.90;99.90;;;;;;4955260;28;20055;-89
2022/09/23 10:35:15;;;;;;;15.82;8.77;;;15.00;99.90;;;;;;4953604;28;20039;-90
2022/09/23 10:37:48;;;;;;;9.95;7.43;;;15.00;99.90;;;;;;4967596;28;20126;-89
2022/09/23 10:46:37;;;;;;;15.32;8.40;;;15.20;99.90;;;;;;4963825;28;20043;-90
2022/09/23 10:49:09;;;;;;;11.20;7.65;;;15.30;99.90;;;;;;4961716;28;20126;-90
2022/09/23 10:52:13;;;;;;;9.88;6.85;;;15.30;99.90;;;;;;4962920;28;20050;-91
2022/09/23 10:54:51;;;;;;;10.25;7.60;;;15.40;99.90;;;;;;4945079;28;20051;-89
2022/09/23 10:57:52;;;;;;;12.20;7.93;;;15.40;99.90;;;;;;4963557;28;20051;-90
2022/09/23 11:00:29;;;;;;;11.48;7.57;;;15.30;99.90;;;;;;4864647;29;20097;-90
2022/09/23 11:03:16;;;;;;;10.35;8.20;;;15.40;99.90;;;;;;4859327;29;20125;-91
2022/09/23 11:05:50;;;;;;;13.30;7.43;;;15.40;99.90;;;;;;4859903;29;20053;-91
2022/09/23 11:08:35;;;;;;;;;;;15.40;99.90;;;;;;4862716;29;20562;-90
2022/09/23 11:11:32;;;;;;;10.13;7.68;;;15.40;99.90;;;;;;4844439;29;19924;-90
2022/09/23 11:14:15;;;;;;;11.38;8.15;;;15.50;99.90;;;;;;4853593;29;20055;-91
2022/09/23 11:17:13;;;;;;;16.63;8.05;;;15.50;99.90;;;;;;4850853;29;20068;-89
2022/09/23 11:20:31;;;;;;;11.35;7.95;;;15.60;99.90;;;;;;4851332;29;20045;-89
2022/09/23 11:23:19;;;;;;;11.98;8.18;;;15.60;99.90;;;;;;4792297;29;20701;-89
2022/09/23 11:26:02;;;;;;;12.43;8.48;;;15.60;99.90;;;;;;4814401;29;20527;-90
2022/09/23 11:28:55;;;;;;;10.63;7.70;;;15.60;99.90;;;;;;4813587;29;20474;-89
2022/09/23 11:31:46;;;;;;;13.10;8.70;;;15.70;99.90;;;;;;4814292;29;20046;-89
2022/09/23 11:34:21;;;;;;;11.95;8.70;;;15.80;99.90;;;;;;4798836;29;20058;-89
2022/09/23 11:36:56;;;;;;;10.93;8.07;;;15.80;99.90;;;;;;4871684;29;20059;-89
2022/09/23 11:39:33;;;;;;;11.93;8.43;;;15.90;99.90;;;;;;4880532;29;20048;-89
2022/09/23 11:42:00;;;;;;;10.85;7.93;;;15.90;99.90;;;;;;4880969;29;20127;-91
2022/09/23 11:44:36;;;;;;;12.40;8.45;;;15.90;99.90;;;;;;4884758;29;20048;-88
2022/09/23 11:47:20;;;;;;;13.88;8.48;;;16.00;99.90;;;;;;4864898;29;20040;-89
2022/09/23 11:49:58;;;;;;;15.00;8.82;;;16.10;99.90;;;;;;4874636;29;20052;-89
2022/09/23 11:52:34;;;;;;;11.73;8.73;;;16.00;99.90;;;;;;4876000;28;20044;-90
2022/09/23 11:55:10;;;;;;;12.52;9.02;;;16.10;99.90;;;;;;4957610;28;20038;-89
2022/09/23 11:57:51;;;;;;;12.07;8.73;;;16.20;99.90;;;;;;4958555;28;20134;-89
2022/09/23 12:00:22;;;;;;;15.93;8.55;;;16.10;99.90;;;;;;4939587;28;20047;-89
2022/09/23 12:03:42;;;;;;;12.02;8.65;;;16.00;99.90;;;;;;4960067;28;20491;-89
2022/09/23 12:06:18;;;;;;;10.95;9.20;;;16.30;99.90;;;;;;4870378;29;20055;-89
2022/09/23 12:08:43;;;;;;;13.48;9.13;;;16.10;99.90;;;;;;4885031;29;20053;-87
2022/09/23 12:11:40;;;;;;;15.52;9.88;;;16.00;99.90;;;;;;4867877;29;20040;-89
2022/09/23 12:14:29;;;;;;;12.57;9.20;;;16.10;99.90;;;;;;4893936;29;20049;-88
2022/09/23 12:17:19;;;;;;;15.00;9.07;;;16.20;99.90;;;;;;4892727;29;20048;-88
2022/09/23 12:19:59;;;;;;;13.55;8.70;;;16.20;99.90;;;;;;4893464;29;20207;-88
2022/09/23 12:22:32;;;;;;;12.73;8.88;;;16.20;99.90;;;;;;4892471;29;20084;-88
2022/09/23 12:24:57;;;;;;;12.55;9.45;;;16.20;99.90;;;;;;4893718;29;20494;-89
2022/09/23 12:27:27;;;;;;;15.18;9.55;;;16.20;99.90;;;;;;4893647;29;20059;-90
2022/09/23 12:30:04;;;;;;;12.73;9.38;;;16.20;99.90;;;;;;4862877;29;20055;-90
2022/09/23 12:32:31;;;;;;;14.10;10.32;;;16.30;99.90;;;;;;4878849;29;20135;-88
2022/09/23 12:34:58;;;;;;;14.15;9.20;;;16.30;99.90;;;;;;4892809;29;20041;-89
2022/09/23 12:37:36;;;;;;;13.10;9.50;;;16.40;99.90;;;;;;4878375;29;20042;-89
2022/09/23 12:40:13;;;;;;;13.57;10.15;;;16.40;99.90;;;;;;4925108;28;20082;-89
2022/09/23 12:42:45;;;;;;;14.55;10.50;;;16.40;99.90;;;;;;4951528;28;20530;-89
2022/09/23 12:45:31;;;;;;;13.07;9.55;;;16.40;99.90;;;;;;4969744;28;20050;-89
2022/09/23 12:48:03;;;;;;;14.77;10.60;;;16.50;99.90;;;;;;4960859;28;20415;-89
2022/09/23 12:51:07;;;;;;;13.70;9.30;;;16.50;99.90;;;;;;4950629;28;20109;-89
2022/09/23 12:53:33;;;;;;;13.67;10.10;;;16.50;99.90;;;;;;4965347;28;20077;-89
2022/09/23 12:56:01;;;;;;;15.35;9.38;;;16.60;99.90;;;;;;4957738;28;20117;-90
2022/09/23 12:58:41;;;;;;;17.65;10.63;;;16.60;99.90;;;;;;4933364;28;20546;-89
2022/09/23 13:01:17;;;;;;;14.40;9.35;;;16.60;99.90;;;;;;4959262;28;20090;-87
2022/09/23 13:06:57;;;;;;;15.23;9.52;;;16.60;99.90;;;;;;4910905;29;20061;-88
2022/09/23 13:09:36;;;;;;;12.27;9.48;;;16.50;99.90;;;;;;4948255;28;20117;-88
2022/09/23 13:12:07;;;;;;;15.63;10.48;;;16.60;99.90;;;;;;4952195;28;20110;-88
2022/09/23 13:14:34;;;;;;;14.88;9.80;;;16.60;99.90;;;;;;4952137;28;20042;-88
2022/09/23 13:17:00;;;;;;;13.13;9.60;;;16.60;99.90;;;;;;4964384;28;20676;-89
2022/09/23 13:19:25;;;;;;;12.68;10.38;;;16.60;99.90;;;;;;4942722;28;20039;-90
2022/09/23 13:22:00;;;;;;;12.68;9.75;;;16.50;99.90;;;;;;4966584;28;20059;-89
2022/09/23 13:24:28;;;;;;;12.25;9.55;;;16.60;99.90;;;;;;4955719;28;20048;-89
2022/09/23 13:27:05;;;;;;;14.18;10.27;;;16.60;99.90;;;;;;4968124;28;20503;-89
2022/09/23 13:30:02;;;;;;;14.35;9.70;;;16.60;99.90;;;;;;4949689;28;20049;-90
2022/09/23 13:32:38;;;;;;;13.23;10.23;;;16.50;99.90;;;;;;4925395;28;20501;-89
2022/09/23 13:35:11;;;;;;;14.65;9.90;;;16.50;99.90;;;;;;4946832;28;20051;-89
2022/09/23 13:37:41;;;;;;;12.67;9.77;;;16.40;99.90;;;;;;4948012;28;20051;-91
2022/09/23 13:40:28;;;;;;;14.52;10.43;;;16.20;99.90;;;;;;4952916;28;20047;-90
2022/09/23 13:43:00;;;;;;;14.57;10.27;;;16.30;99.90;;;;;;4969677;28;20035;-89
2022/09/23 13:45:29;;;;;;;12.68;9.52;;;16.20;99.90;;;;;;4966884;28;20166;-89
2022/09/23 13:48:04;;;;;;;16.02;10.32;;;16.10;99.90;;;;;;4965042;28;20055;-89
2022/09/23 13:50:31;;;;;;;14.27;10.85;;;16.10;99.90;;;;;;4945394;28;20114;-92
2022/09/23 13:53:01;;;;;;;13.23;10.25;;;16.00;99.90;;;;;;4970672;28;20037;-90
2022/09/23 13:55:32;;;;;;;14.82;11.65;;;16.00;99.90;;;;;;4939170;28;20039;-92
2022/09/23 13:58:23;;;;;;;13.15;11.05;;;15.90;99.90;;;;;;4954334;28;20039;-92
2022/09/23 14:00:49;;;;;;;16.10;10.85;;;15.90;99.90;;;;;;4962297;28;20054;-91
2022/09/23 14:03:25;;;;;;;16.50;10.90;;;15.80;99.90;;;;;;4952745;28;20042;-91
2022/09/23 14:05:52;;;;;;;13.73;11.27;;;15.70;99.90;;;;;;4967627;28;20039;-91
2022/09/23 14:08:18;;;;;;;15.80;11.55;;;15.60;99.90;;;;;;4952581;28;20046;-91
2022/09/23 14:10:45;;;;;;;18.33;11.65;;;15.60;99.90;;;;;;4959168;28;20047;-89
2022/09/23 14:13:17;;;;;;;16.38;12.25;;;15.50;99.90;;;;;;4967654;28;20046;-89
2022/09/23 14:15:44;;;;;;;14.60;11.38;;;15.50;99.90;;;;;;4957366;28;20054;-89
2022/09/23 14:18:26;;;;;;;15.48;11.43;;;15.50;99.90;;;;;;4950516;28;20043;-89
2022/09/23 14:20:52;;;;;;;16.60;11.98;;;15.50;99.90;;;;;;4960331;28;20063;-89
2022/09/23 14:23:17;;;;;;;13.43;11.57;;;15.50;99.90;;;;;;4966166;28;20511;-89
2022/09/23 14:25:44;;;;;;;16.73;12.73;;;15.40;99.90;;;;;;4949202;28;20061;-89
2022/09/23 14:28:15;;;;;;;16.95;11.70;;;15.40;99.90;;;;;;4950011;28;20039;-88
2022/09/23 14:30:43;;;;;;;14.65;11.50;;;15.50;99.90;;;;;;4969480;28;20038;-88
2022/09/23 14:33:13;;;;;;;14.50;11.57;;;15.40;99.90;;;;;;4969039;28;20149;-86
2022/09/23 14:35:43;;;;;;;17.20;12.80;;;15.40;99.90;;;;;;4952864;28;20065;-89
2022/09/23 14:41:15;;;;;;;15.00;12.50;;;15.40;99.90;;;;;;4962675;28;20439;-88
2022/09/23 14:43:50;;;;;;;17.13;13.05;;;15.40;99.90;;;;;;4944710;28;20109;-88
2022/09/23 14:46:21;;;;;;;19.33;13.52;;;15.30;99.90;;;;;;4964717;28;20158;-89
2022/09/23 14:49:07;;;;;;;17.05;13.23;;;15.40;99.90;;;;;;4958665;28;20039;-88
2022/09/23 14:51:54;;;;;;;14.98;12.55;;;15.30;99.90;;;;;;4944522;28;20034;-88
2022/09/23 14:54:34;;;;;;;15.43;12.63;;;15.40;99.90;;;;;;4952341;28;20069;-89
2022/09/23 14:57:01;;;;;;;18.85;13.25;;;15.30;99.90;;;;;;4950695;28;20046;-88
2022/09/23 14:59:32;;;;;;;20.40;14.35;;;15.30;99.90;;;;;;4949091;28;20946;-88
2022/09/23 15:01:58;;;;;;;16.33;12.55;;;15.40;99.90;;;;;;4967142;28;20053;-88
2022/09/23 15:04:24;;;;;;;15.73;13.02;;;15.40;99.90;;;;;;4965327;28;20027;-87
2022/09/23 15:07:17;;;;;;;17.08;13.10;;;15.40;99.90;;;;;;4946162;28;20058;-88
2022/09/23 15:09:44;;;;;;;17.80;13.60;;;15.40;99.90;;;;;;4950262;28;20492;-88
2022/09/23 15:12:16;;;;;;;17.23;13.23;;;15.40;99.90;;;;;;4947228;28;20563;-87
2022/09/23 15:14:51;;;;;;;16.65;13.20;;;15.40;99.90;;;;;;4939256;28;20755;-87
2022/09/23 15:17:23;;;;;;;17.40;12.98;;;15.40;99.90;;;;;;4939283;28;20443;-87
2022/09/23 15:19:55;;;;;;;17.67;14.02;;;15.40;99.90;;;;;;4957321;28;20399;-88
2022/09/23 15:22:22;;;;;;;18.65;14.73;;;15.30;99.90;;;;;;4939925;28;20065;-87
2022/09/23 15:24:51;;;;;;;17.85;14.02;;;15.30;99.90;;;;;;4947921;28;20089;-87
2022/09/23 15:27:27;;;;;;;17.20;14.35;;;15.30;99.90;;;;;;4963104;28;20368;-87
2022/09/23 15:29:55;;;;;;;16.60;13.27;;;15.30;99.90;;;;;;4944033;28;20062;-86
2022/09/23 15:32:20;;;;;;;16.77;13.43;;;15.30;99.90;;;;;;4947390;28;20046;-92
2022/09/23 15:34:49;;;;;;;15.95;12.82;;;15.20;99.90;;;;;;4964388;28;20079;-87
2022/09/23 15:37:14;;;;;;;16.10;12.85;;;15.20;99.90;;;;;;4945457;28;20543;-87
2022/09/23 15:39:40;;;;;;;16.45;12.52;;;15.20;99.90;;;;;;4933827;28;20121;-87
2022/09/23 15:42:09;;;;;;;18.55;14.20;;;15.20;99.90;;;;;;4945849;28;20034;-86
2022/09/23 15:44:35;;;;;;;19.05;13.32;;;15.20;99.90;;;;;;4948357;28;20137;-88